PWSweather.com
Personal Weather Stations
Station Observations
SEAWX98122
Seattle (greenwood), Seattle, WA 98103

Seattle (greenwood)Seattle, WA 98103

Lat: 47.6977, Lon: -122.347

Elevation: 324

Station Type: Davis Vantage Pro 2

https://www.seattleweather.org

Latest ConditionsUpdated 5:00:01 PM PDT Monday, Jul 22, 2019
Currently Today's Max Today's Min Today's Average
Temperature 77.2°F25.1°C 78.5°F25.8°C 58.0°F14.4°C 66.6°F19.2°C
Dew Point 57.7°F14.3°C 58.4°F14.7°C 47.2°F8.4°C 52.9°F11.6°C
Winds 5.8 mph NW9.3 kmh NW 9.2 mph -14.8 kmh - - 2.9 mph 4.7 kmh
Wind Gusts 9.2 mph14.8 kmh 15.0 mph24.1 kmh - -
Humidity 51% 79% 48% 62%
Pressure 30.04 in1017.3 mb 30.06 in1017.9 mb 29.96 in1014.6 mb -
Hour Temp Dew Point Humidity Winds Wind Gusts Pressure Precip Precip Rate Daily Precip Total
05:00 PM 77.2°F25.1°C 57.7°F14.3°C 51% 5.8 mph NW9.3 kmh NW 9.2 mph14.8 kmh 30.04 in1017.3 mb - 0.00 in0.0 mm 0.00 in0.0 mm
04:55 PM 77.4°F25.2°C 57.9°F14.4°C 51% 4.6 mph NW7.4 kmh NW 8.1 mph13.0 kmh 30.04 in1017.3 mb - 0.00 in0.0 mm 0.00 in0.0 mm
04:50 PM 78.0°F25.6°C 57.9°F14.4°C 50% 5.8 mph NW9.3 kmh NW 6.9 mph11.1 kmh 30.04 in1017.3 mb - 0.00 in0.0 mm 0.00 in0.0 mm
04:45 PM 78.4°F25.8°C 57.7°F14.3°C 49% 3.5 mph NW5.6 kmh NW 10.4 mph16.7 kmh 30.04 in1017.3 mb - 0.00 in0.0 mm 0.00 in0.0 mm
04:40 PM 78.5°F25.8°C 57.2°F14.0°C 48% 2.3 mph NW3.7 kmh NW 8.1 mph13.0 kmh 30.04 in1017.3 mb - 0.00 in0.0 mm 0.00 in0.0 mm
04:35 PM 78.3°F25.7°C 57.0°F13.9°C 48% 3.5 mph NNE5.6 kmh NNE 4.6 mph7.4 kmh 30.05 in1017.6 mb - 0.00 in0.0 mm 0.00 in0.0 mm
04:30 PM 78.3°F25.7°C 57.6°F14.2°C 49% 3.5 mph WNW5.6 kmh WNW 8.1 mph13.0 kmh 30.05 in1017.6 mb - 0.00 in0.0 mm 0.00 in0.0 mm
04:25 PM 78.0°F25.6°C 58.4°F14.7°C 51% 3.5 mph NW5.6 kmh NW 5.8 mph9.3 kmh 30.05 in1017.6 mb - 0.00 in0.0 mm 0.00 in0.0 mm
04:20 PM 78.3°F25.7°C 57.6°F14.2°C 49% 3.5 mph NW5.6 kmh NW 9.2 mph14.8 kmh 30.05 in1017.6 mb - 0.00 in0.0 mm 0.00 in0.0 mm
04:15 PM 78.2°F25.7°C 57.5°F14.2°C 49% 3.5 mph NW5.6 kmh NW 6.9 mph11.1 kmh 30.05 in1017.6 mb - 0.00 in0.0 mm 0.00 in0.0 mm
04:10 PM 77.5°F25.3°C 56.9°F13.8°C 49% 5.8 mph NW9.3 kmh NW 9.2 mph14.8 kmh 30.05 in1017.6 mb - 0.00 in0.0 mm 0.00 in0.0 mm
04:00 PM 77.6°F25.3°C 56.9°F13.8°C 49% 3.5 mph NW5.6 kmh NW 5.8 mph9.3 kmh 30.05 in1017.6 mb - 0.00 in0.0 mm 0.00 in0.0 mm
03:55 PM 76.6°F24.8°C 56.6°F13.7°C 50% 5.8 mph N9.3 kmh N 8.1 mph13.0 kmh 30.06 in1017.9 mb - 0.00 in0.0 mm 0.00 in0.0 mm
03:50 PM 77.4°F25.2°C 57.3°F14.1°C 50% 2.3 mph WNW3.7 kmh WNW 4.6 mph7.4 kmh 30.06 in1017.9 mb - 0.00 in0.0 mm 0.00 in0.0 mm
03:45 PM 77.1°F25.1°C 57.1°F13.9°C 50% 3.5 mph NW5.6 kmh NW 5.8 mph9.3 kmh 30.06 in1017.9 mb - 0.00 in0.0 mm 0.00 in0.0 mm
03:40 PM 76.4°F24.7°C 57.0°F13.9°C 51% 4.6 mph WNW7.4 kmh WNW 9.2 mph14.8 kmh 30.06 in1017.9 mb - 0.00 in0.0 mm 0.00 in0.0 mm
03:35 PM 76.7°F24.8°C 56.7°F13.7°C 50% 5.8 mph NW9.3 kmh NW 9.2 mph14.8 kmh 30.05 in1017.6 mb - 0.00 in0.0 mm 0.00 in0.0 mm
03:30 PM 76.6°F24.8°C 56.5°F13.6°C 50% 4.6 mph NNW7.4 kmh NNW 3.5 mph5.6 kmh 30.05 in1017.6 mb - 0.00 in0.0 mm 0.00 in0.0 mm
03:25 PM 76.7°F24.8°C 56.6°F13.7°C 50% 5.8 mph NW9.3 kmh NW 9.2 mph14.8 kmh 30.06 in1017.9 mb - 0.00 in0.0 mm 0.00 in0.0 mm
03:20 PM 77.4°F25.2°C 57.3°F14.1°C 50% 3.5 mph WNW5.6 kmh WNW 8.1 mph13.0 kmh 30.05 in1017.6 mb - 0.00 in0.0 mm 0.00 in0.0 mm
03:15 PM 75.8°F24.3°C 56.9°F13.8°C 52% 3.5 mph NW5.6 kmh NW 4.6 mph7.4 kmh 30.05 in1017.6 mb - 0.00 in0.0 mm 0.00 in0.0 mm
03:10 PM 75.9°F24.4°C 57.6°F14.2°C 53% 6.9 mph NW11.1 kmh NW 8.1 mph13.0 kmh 30.05 in1017.6 mb - 0.00 in0.0 mm 0.00 in0.0 mm
03:00 PM 76.2°F24.6°C 57.3°F14.1°C 52% 2.3 mph WNW3.7 kmh WNW 5.8 mph9.3 kmh 30.05 in1017.6 mb - 0.00 in0.0 mm 0.00 in0.0 mm
02:55 PM 77.0°F25.0°C 57.5°F14.2°C 51% 6.9 mph WNW11.1 kmh WNW 9.2 mph14.8 kmh 30.05 in1017.6 mb - 0.00 in0.0 mm 0.00 in0.0 mm
02:50 PM 76.3°F24.6°C 57.9°F14.4°C 53% 2.3 mph N3.7 kmh N 3.5 mph5.6 kmh 30.05 in1017.6 mb - 0.00 in0.0 mm 0.00 in0.0 mm
02:45 PM 76.6°F24.8°C 57.6°F14.2°C 52% 4.6 mph WNW7.4 kmh WNW 6.9 mph11.1 kmh 30.05 in1017.6 mb - 0.00 in0.0 mm 0.00 in0.0 mm
02:40 PM 76.0°F24.4°C 57.1°F13.9°C 52% 3.5 mph NNW5.6 kmh NNW 4.6 mph7.4 kmh 30.06 in1017.9 mb - 0.00 in0.0 mm 0.00 in0.0 mm
02:35 PM 76.5°F24.7°C 57.6°F14.2°C 52% 3.5 mph NW5.6 kmh NW 4.6 mph7.4 kmh 30.05 in1017.6 mb - 0.00 in0.0 mm 0.00 in0.0 mm
02:30 PM 76.6°F24.8°C 57.6°F14.2°C 52% 3.5 mph N5.6 kmh N 4.6 mph7.4 kmh 30.06 in1017.9 mb - 0.00 in0.0 mm 0.00 in0.0 mm
02:25 PM 76.1°F24.5°C 57.7°F14.3°C 53% 2.3 mph NW3.7 kmh NW 5.8 mph9.3 kmh 30.05 in1017.6 mb - 0.00 in0.0 mm 0.00 in0.0 mm
02:20 PM 77.3°F25.2°C 57.7°F14.3°C 51% 3.5 mph NW5.6 kmh NW 3.5 mph5.6 kmh 30.05 in1017.6 mb - 0.00 in0.0 mm 0.00 in0.0 mm
02:15 PM 77.2°F25.1°C 57.7°F14.3°C 51% 3.5 mph W5.6 kmh W 6.9 mph11.1 kmh 30.05 in1017.6 mb - 0.00 in0.0 mm 0.00 in0.0 mm
02:10 PM 77.6°F25.3°C 58.0°F14.4°C 51% 2.3 mph SW3.7 kmh SW 3.5 mph5.6 kmh 30.05 in1017.6 mb - 0.00 in0.0 mm 0.00 in0.0 mm
02:00 PM 77.1°F25.1°C 58.1°F14.5°C 52% Calm Calm 3.5 mph5.6 kmh 30.05 in1017.6 mb - 0.00 in0.0 mm 0.00 in0.0 mm
01:55 PM 76.6°F24.8°C 57.7°F14.3°C 52% 8.1 mph WSW13.0 kmh WSW 9.2 mph14.8 kmh 30.05 in1017.6 mb - 0.00 in0.0 mm 0.00 in0.0 mm
01:50 PM 76.7°F24.8°C 56.7°F13.7°C 50% 3.5 mph SSW5.6 kmh SSW 5.8 mph9.3 kmh 30.05 in1017.6 mb - 0.00 in0.0 mm 0.00 in0.0 mm
01:45 PM 76.7°F24.8°C 58.3°F14.6°C 53% 2.3 mph ENE3.7 kmh ENE 4.6 mph7.4 kmh 30.05 in1017.6 mb - 0.00 in0.0 mm 0.00 in0.0 mm
01:40 PM 76.3°F24.6°C 56.8°F13.8°C 51% 3.5 mph SSW5.6 kmh SSW 4.6 mph7.4 kmh 30.05 in1017.6 mb - 0.00 in0.0 mm 0.00 in0.0 mm
01:35 PM 75.1°F23.9°C 57.8°F14.3°C 55% 2.3 mph S3.7 kmh S 4.6 mph7.4 kmh 30.05 in1017.6 mb - 0.00 in0.0 mm 0.00 in0.0 mm
01:30 PM 74.7°F23.7°C 57.0°F13.9°C 54% 2.3 mph SW3.7 kmh SW 3.5 mph5.6 kmh 30.05 in1017.6 mb - 0.00 in0.0 mm 0.00 in0.0 mm
01:25 PM 75.5°F24.2°C 57.2°F14.0°C 53% 3.5 mph WSW5.6 kmh WSW 5.8 mph9.3 kmh 30.05 in1017.6 mb - 0.00 in0.0 mm 0.00 in0.0 mm
01:20 PM 75.4°F24.1°C 57.1°F13.9°C 53% 2.3 mph SW3.7 kmh SW 4.6 mph7.4 kmh 30.05 in1017.6 mb - 0.00 in0.0 mm 0.00 in0.0 mm
01:15 PM 74.3°F23.5°C 56.6°F13.7°C 54% 2.3 mph S3.7 kmh S 4.6 mph7.4 kmh 30.05 in1017.6 mb - 0.00 in0.0 mm 0.00 in0.0 mm
01:10 PM 75.0°F23.9°C 57.2°F14.0°C 54% 3.5 mph SW5.6 kmh SW 8.1 mph13.0 kmh 30.05 in1017.6 mb - 0.00 in0.0 mm 0.00 in0.0 mm
01:00 PM 75.7°F24.3°C 57.9°F14.4°C 54% 3.5 mph S5.6 kmh S 6.9 mph11.1 kmh 30.05 in1017.6 mb - 0.00 in0.0 mm 0.00 in0.0 mm
12:55 PM 75.5°F24.2°C 57.7°F14.3°C 54% 1.2 mph SW1.9 kmh SW 1.2 mph1.9 kmh 30.05 in1017.6 mb - 0.00 in0.0 mm 0.00 in0.0 mm
12:50 PM 74.2°F23.4°C 57.0°F13.9°C 55% 1.2 mph SW1.9 kmh SW 4.6 mph7.4 kmh 30.05 in1017.6 mb - 0.00 in0.0 mm 0.00 in0.0 mm
12:45 PM 72.9°F22.7°C 56.8°F13.8°C 57% 3.5 mph SSW5.6 kmh SSW 8.1 mph13.0 kmh 30.06 in1017.9 mb - 0.00 in0.0 mm 0.00 in0.0 mm
12:40 PM 72.7°F22.6°C 56.6°F13.7°C 57% 5.8 mph SW9.3 kmh SW 6.9 mph11.1 kmh 30.06 in1017.9 mb - 0.00 in0.0 mm 0.00 in0.0 mm
12:35 PM 72.7°F22.6°C 56.1°F13.4°C 56% 4.6 mph SSE7.4 kmh SSE 8.1 mph13.0 kmh 30.06 in1017.9 mb - 0.00 in0.0 mm 0.00 in0.0 mm
12:30 PM 72.9°F22.7°C 56.3°F13.5°C 56% 3.5 mph SW5.6 kmh SW 9.2 mph14.8 kmh 30.05 in1017.6 mb - 0.00 in0.0 mm 0.00 in0.0 mm
12:25 PM 72.6°F22.6°C 56.0°F13.3°C 56% 2.3 mph S3.7 kmh S 6.9 mph11.1 kmh 30.05 in1017.6 mb - 0.00 in0.0 mm 0.00 in0.0 mm
12:20 PM 72.2°F22.3°C 56.1°F13.4°C 57% 5.8 mph S9.3 kmh S 9.2 mph14.8 kmh 30.06 in1017.9 mb - 0.00 in0.0 mm 0.00 in0.0 mm
12:15 PM 72.3°F22.4°C 56.2°F13.4°C 57% 4.6 mph S7.4 kmh S 11.5 mph18.5 kmh 30.06 in1017.9 mb - 0.00 in0.0 mm 0.00 in0.0 mm
12:10 PM 71.5°F21.9°C 55.9°F13.3°C 58% 4.6 mph WNW7.4 kmh WNW 6.9 mph11.1 kmh 30.06 in1017.9 mb - 0.00 in0.0 mm 0.00 in0.0 mm
12:00 PM 71.6°F22.0°C 55.6°F13.1°C 57% 5.8 mph SW9.3 kmh SW 10.4 mph16.7 kmh 30.06 in1017.9 mb - 0.00 in0.0 mm 0.00 in0.0 mm
11:55 AM 71.2°F21.8°C 55.7°F13.2°C 58% 4.6 mph SW7.4 kmh SW 6.9 mph11.1 kmh 30.05 in1017.6 mb - 0.00 in0.0 mm 0.00 in0.0 mm
11:50 AM 70.9°F21.6°C 54.9°F12.7°C 57% 6.9 mph SSW11.1 kmh SSW 8.1 mph13.0 kmh 30.06 in1017.9 mb - 0.00 in0.0 mm 0.00 in0.0 mm
11:45 AM 70.5°F21.4°C 55.0°F12.8°C 58% 3.5 mph WSW5.6 kmh WSW 9.2 mph14.8 kmh 30.05 in1017.6 mb - 0.00 in0.0 mm 0.00 in0.0 mm
11:40 AM 70.4°F21.3°C 54.9°F12.7°C 58% 3.5 mph SW5.6 kmh SW 6.9 mph11.1 kmh 30.05 in1017.6 mb - 0.00 in0.0 mm 0.00 in0.0 mm
11:35 AM 70.0°F21.1°C 55.0°F12.8°C 59% 3.5 mph SW5.6 kmh SW 5.8 mph9.3 kmh 30.05 in1017.6 mb - 0.00 in0.0 mm 0.00 in0.0 mm
11:30 AM 69.8°F21.0°C 54.8°F12.7°C 59% 5.8 mph S9.3 kmh S 9.2 mph14.8 kmh 30.05 in1017.6 mb - 0.00 in0.0 mm 0.00 in0.0 mm
11:25 AM 70.1°F21.2°C 55.1°F12.8°C 59% 5.8 mph S9.3 kmh S 9.2 mph14.8 kmh 30.05 in1017.6 mb - 0.00 in0.0 mm 0.00 in0.0 mm
11:20 AM 69.8°F21.0°C 53.9°F12.2°C 57% 4.6 mph SSW7.4 kmh SSW 10.4 mph16.7 kmh 30.06 in1017.9 mb - 0.00 in0.0 mm 0.00 in0.0 mm
11:15 AM 69.9°F21.1°C 54.4°F12.4°C 58% 5.8 mph SSW9.3 kmh SSW 9.2 mph14.8 kmh 30.05 in1017.6 mb - 0.00 in0.0 mm 0.00 in0.0 mm
11:10 AM 70.0°F21.1°C 54.5°F12.5°C 58% 4.6 mph S7.4 kmh S 5.8 mph9.3 kmh 30.05 in1017.6 mb - 0.00 in0.0 mm 0.00 in0.0 mm
11:00 AM 68.7°F20.4°C 54.7°F12.6°C 61% 4.6 mph WSW7.4 kmh WSW 6.9 mph11.1 kmh 30.05 in1017.6 mb - 0.00 in0.0 mm 0.00 in0.0 mm
10:55 AM 69.1°F20.6°C 54.2°F12.3°C 59% 6.9 mph SW11.1 kmh SW 12.7 mph20.4 kmh 30.05 in1017.6 mb - 0.00 in0.0 mm 0.00 in0.0 mm
10:50 AM 68.9°F20.5°C 54.0°F12.2°C 59% 5.8 mph SSW9.3 kmh SSW 11.5 mph18.5 kmh 30.05 in1017.6 mb - 0.00 in0.0 mm 0.00 in0.0 mm
10:45 AM 69.1°F20.6°C 53.7°F12.1°C 58% 6.9 mph S11.1 kmh S 6.9 mph11.1 kmh 30.05 in1017.6 mb - 0.00 in0.0 mm 0.00 in0.0 mm
10:40 AM 69.1°F20.6°C 54.2°F12.3°C 59% 4.6 mph SW7.4 kmh SW 5.8 mph9.3 kmh 30.04 in1017.3 mb - 0.00 in0.0 mm 0.00 in0.0 mm
10:35 AM 68.7°F20.4°C 53.8°F12.1°C 59% 3.5 mph WSW5.6 kmh WSW 3.5 mph5.6 kmh 30.04 in1017.3 mb - 0.00 in0.0 mm 0.00 in0.0 mm
10:30 AM 68.6°F20.3°C 53.7°F12.1°C 59% 4.6 mph SW7.4 kmh SW 9.2 mph14.8 kmh 30.04 in1017.3 mb - 0.00 in0.0 mm 0.00 in0.0 mm
10:25 AM 68.5°F20.3°C 53.6°F12.0°C 59% 3.5 mph SW5.6 kmh SW 6.9 mph11.1 kmh 30.04 in1017.3 mb - 0.00 in0.0 mm 0.00 in0.0 mm
10:20 AM 68.3°F20.2°C 52.9°F11.6°C 58% 4.6 mph S7.4 kmh S 8.1 mph13.0 kmh 30.04 in1017.3 mb - 0.00 in0.0 mm 0.00 in0.0 mm
10:15 AM 68.0°F20.0°C 53.6°F12.0°C 60% 5.8 mph SSW9.3 kmh SSW 6.9 mph11.1 kmh 30.04 in1017.3 mb - 0.00 in0.0 mm 0.00 in0.0 mm
10:10 AM 67.8°F19.9°C 53.4°F11.9°C 60% 5.8 mph SSW9.3 kmh SSW 6.9 mph11.1 kmh 30.04 in1017.3 mb - 0.00 in0.0 mm 0.00 in0.0 mm
10:00 AM 67.2°F19.6°C 52.4°F11.3°C 59% 5.8 mph SSW9.3 kmh SSW 9.2 mph14.8 kmh 30.04 in1017.3 mb - 0.00 in0.0 mm 0.00 in0.0 mm
09:55 AM 67.4°F19.7°C 52.1°F11.2°C 58% 9.2 mph S14.8 kmh S 15.0 mph24.1 kmh 30.04 in1017.3 mb - 0.00 in0.0 mm 0.00 in0.0 mm
09:50 AM 67.5°F19.7°C 51.7°F10.9°C 57% 5.8 mph S9.3 kmh S 9.2 mph14.8 kmh 30.04 in1017.3 mb - 0.00 in0.0 mm 0.00 in0.0 mm
09:45 AM 67.3°F19.6°C 53.9°F12.2°C 62% 3.5 mph SW5.6 kmh SW 8.1 mph13.0 kmh 30.04 in1017.3 mb - 0.00 in0.0 mm 0.00 in0.0 mm
09:40 AM 67.0°F19.4°C 54.0°F12.2°C 63% 4.6 mph SW7.4 kmh SW 8.1 mph13.0 kmh 30.04 in1017.3 mb - 0.00 in0.0 mm 0.00 in0.0 mm
09:35 AM 66.6°F19.2°C 54.4°F12.4°C 65% 3.5 mph SSW5.6 kmh SSW 4.6 mph7.4 kmh 30.04 in1017.3 mb - 0.00 in0.0 mm 0.00 in0.0 mm
09:30 AM 66.0°F18.9°C 54.3°F12.4°C 66% 1.2 mph SW1.9 kmh SW 2.3 mph3.7 kmh 30.04 in1017.3 mb - 0.00 in0.0 mm 0.00 in0.0 mm
09:25 AM 65.8°F18.8°C 54.5°F12.5°C 67% 3.5 mph W5.6 kmh W 3.5 mph5.6 kmh 30.04 in1017.3 mb - 0.00 in0.0 mm 0.00 in0.0 mm
09:20 AM 65.3°F18.5°C 54.0°F12.2°C 67% 4.6 mph SW7.4 kmh SW 4.6 mph7.4 kmh 30.04 in1017.3 mb - 0.00 in0.0 mm 0.00 in0.0 mm
09:15 AM 64.9°F18.3°C 54.1°F12.3°C 68% 3.5 mph SW5.6 kmh SW 6.9 mph11.1 kmh 30.04 in1017.3 mb - 0.00 in0.0 mm 0.00 in0.0 mm
09:10 AM 64.5°F18.1°C 54.1°F12.3°C 69% 3.5 mph WSW5.6 kmh WSW 5.8 mph9.3 kmh 30.04 in1017.3 mb - 0.00 in0.0 mm 0.00 in0.0 mm
09:00 AM 64.2°F17.9°C 53.8°F12.1°C 69% 4.6 mph SW7.4 kmh SW 8.1 mph13.0 kmh 30.04 in1017.3 mb - 0.00 in0.0 mm 0.00 in0.0 mm
08:55 AM 64.1°F17.8°C 54.1°F12.3°C 70% 1.2 mph SW1.9 kmh SW 3.5 mph5.6 kmh 30.04 in1017.3 mb - 0.00 in0.0 mm 0.00 in0.0 mm
08:50 AM 63.8°F17.7°C 53.8°F12.1°C 70% 2.3 mph SW3.7 kmh SW 6.9 mph11.1 kmh 30.03 in1016.9 mb - 0.00 in0.0 mm 0.00 in0.0 mm
08:45 AM 63.6°F17.6°C 53.6°F12.0°C 70% 3.5 mph SW5.6 kmh SW 5.8 mph9.3 kmh 30.03 in1016.9 mb - 0.00 in0.0 mm 0.00 in0.0 mm
08:40 AM 63.4°F17.4°C 53.4°F11.9°C 70% 4.6 mph SW7.4 kmh SW 5.8 mph9.3 kmh 30.03 in1016.9 mb - 0.00 in0.0 mm 0.00 in0.0 mm
08:35 AM 63.3°F17.4°C 53.7°F12.1°C 71% 3.5 mph SW5.6 kmh SW 5.8 mph9.3 kmh 30.03 in1016.9 mb - 0.00 in0.0 mm 0.00 in0.0 mm
08:30 AM 62.8°F17.1°C 53.6°F12.0°C 72% 3.5 mph SW5.6 kmh SW 6.9 mph11.1 kmh 30.03 in1016.9 mb - 0.00 in0.0 mm 0.00 in0.0 mm
08:25 AM 62.7°F17.1°C 53.2°F11.8°C 71% 6.9 mph SSW11.1 kmh SSW 8.1 mph13.0 kmh 30.03 in1016.9 mb - 0.00 in0.0 mm 0.00 in0.0 mm
08:20 AM 62.6°F17.0°C 53.4°F11.9°C 72% 8.1 mph SW13.0 kmh SW 10.4 mph16.7 kmh 30.03 in1016.9 mb - 0.00 in0.0 mm 0.00 in0.0 mm
08:15 AM 62.3°F16.8°C 53.5°F11.9°C 73% 2.3 mph S3.7 kmh S 6.9 mph11.1 kmh 30.03 in1016.9 mb - 0.00 in0.0 mm 0.00 in0.0 mm
08:10 AM 61.9°F16.6°C 53.5°F11.9°C 74% 4.6 mph S7.4 kmh S 4.6 mph7.4 kmh 30.03 in1016.9 mb - 0.00 in0.0 mm 0.00 in0.0 mm
08:00 AM 61.6°F16.4°C 53.6°F12.0°C 75% 4.6 mph S7.4 kmh S 5.8 mph9.3 kmh 30.03 in1016.9 mb - 0.00 in0.0 mm 0.00 in0.0 mm
07:55 AM 61.3°F16.3°C 53.7°F12.1°C 76% 3.5 mph S5.6 kmh S 3.5 mph5.6 kmh 30.03 in1016.9 mb - 0.00 in0.0 mm 0.00 in0.0 mm
07:50 AM 61.3°F16.3°C 53.7°F12.1°C 76% 5.8 mph SSW9.3 kmh SSW 5.8 mph9.3 kmh 30.02 in1016.6 mb - 0.00 in0.0 mm 0.00 in0.0 mm
07:45 AM 61.3°F16.3°C 53.7°F12.1°C 76% 3.5 mph SW5.6 kmh SW 5.8 mph9.3 kmh 30.03 in1016.9 mb - 0.00 in0.0 mm 0.00 in0.0 mm
07:40 AM 61.0°F16.1°C 53.4°F11.9°C 76% 3.5 mph S5.6 kmh S 5.8 mph9.3 kmh 30.02 in1016.6 mb - 0.00 in0.0 mm 0.00 in0.0 mm
07:35 AM 60.7°F15.9°C 53.4°F11.9°C 77% 3.5 mph WSW5.6 kmh WSW 6.9 mph11.1 kmh 30.03 in1016.9 mb - 0.00 in0.0 mm 0.00 in0.0 mm
07:30 AM 60.5°F15.8°C 52.9°F11.6°C 76% 5.8 mph SSW9.3 kmh SSW 9.2 mph14.8 kmh 30.02 in1016.6 mb - 0.00 in0.0 mm 0.00 in0.0 mm
07:25 AM 60.5°F15.8°C 52.9°F11.6°C 76% 4.6 mph SW7.4 kmh SW 6.9 mph11.1 kmh 30.02 in1016.6 mb - 0.00 in0.0 mm 0.00 in0.0 mm
07:20 AM 60.4°F15.8°C 52.8°F11.6°C 76% 4.6 mph S7.4 kmh S 9.2 mph14.8 kmh 30.02 in1016.6 mb - 0.00 in0.0 mm 0.00 in0.0 mm
07:15 AM 60.2°F15.7°C 52.6°F11.4°C 76% 3.5 mph S5.6 kmh S 4.6 mph7.4 kmh 30.02 in1016.6 mb - 0.00 in0.0 mm 0.00 in0.0 mm
07:10 AM 59.9°F15.5°C 52.7°F11.5°C 77% 4.6 mph SW7.4 kmh SW 5.8 mph9.3 kmh 30.02 in1016.6 mb - 0.00 in0.0 mm 0.00 in0.0 mm
07:00 AM 59.3°F15.2°C 52.4°F11.3°C 78% 3.5 mph SSW5.6 kmh SSW 3.5 mph5.6 kmh 30.01 in1016.3 mb - 0.00 in0.0 mm 0.00 in0.0 mm
06:55 AM 59.1°F15.1°C 52.2°F11.2°C 78% 5.8 mph SSW9.3 kmh SSW 6.9 mph11.1 kmh 30.01 in1016.3 mb - 0.00 in0.0 mm 0.00 in0.0 mm
06:50 AM 59.0°F15.0°C 52.5°F11.4°C 79% 4.6 mph SW7.4 kmh SW 5.8 mph9.3 kmh 30.01 in1016.3 mb - 0.00 in0.0 mm 0.00 in0.0 mm
06:45 AM 59.0°F15.0°C 52.5°F11.4°C 79% 4.6 mph SSW7.4 kmh SSW 4.6 mph7.4 kmh 30.01 in1016.3 mb - 0.00 in0.0 mm 0.00 in0.0 mm
06:40 AM 58.9°F14.9°C 52.4°F11.3°C 79% 4.6 mph SSW7.4 kmh SSW 6.9 mph11.1 kmh 30.01 in1016.3 mb - 0.00 in0.0 mm 0.00 in0.0 mm
06:35 AM 59.0°F15.0°C 52.4°F11.3°C 79% 5.8 mph SW9.3 kmh SW 8.1 mph13.0 kmh 30.01 in1016.3 mb - 0.00 in0.0 mm 0.00 in0.0 mm
06:30 AM 58.8°F14.9°C 52.3°F11.3°C 79% 2.3 mph SW3.7 kmh SW 6.9 mph11.1 kmh 30.01 in1016.3 mb - 0.00 in0.0 mm 0.00 in0.0 mm
06:25 AM 58.7°F14.8°C 52.2°F11.2°C 79% 4.6 mph SSW7.4 kmh SSW 5.8 mph9.3 kmh 30.01 in1016.3 mb - 0.00 in0.0 mm 0.00 in0.0 mm
06:20 AM 58.5°F14.7°C 52.0°F11.1°C 79% 4.6 mph SSW7.4 kmh SSW 4.6 mph7.4 kmh 30.01 in1016.3 mb - 0.00 in0.0 mm 0.00 in0.0 mm
06:15 AM 58.3°F14.6°C 51.9°F11.1°C 79% 2.3 mph SW3.7 kmh SW 5.8 mph9.3 kmh 30.00 in1015.9 mb - 0.00 in0.0 mm 0.00 in0.0 mm
06:10 AM 58.1°F14.5°C 51.6°F10.9°C 79% 3.5 mph SW5.6 kmh SW 3.5 mph5.6 kmh 30.00 in1015.9 mb - 0.00 in0.0 mm 0.00 in0.0 mm
06:00 AM 58.1°F14.5°C 51.2°F10.7°C 78% 1.2 mph SSW1.9 kmh SSW 3.5 mph5.6 kmh 30.00 in1015.9 mb - 0.00 in0.0 mm 0.00 in0.0 mm
05:55 AM 58.0°F14.4°C 51.2°F10.7°C 78% 2.3 mph S3.7 kmh S 3.5 mph5.6 kmh 30.00 in1015.9 mb - 0.00 in0.0 mm 0.00 in0.0 mm
05:50 AM 58.1°F14.5°C 50.9°F10.5°C 77% 1.2 mph SSW1.9 kmh SSW 6.9 mph11.1 kmh 30.00 in1015.9 mb - 0.00 in0.0 mm 0.00 in0.0 mm
05:45 AM 58.1°F14.5°C 51.0°F10.6°C 77% 1.2 mph SSW1.9 kmh SSW 4.6 mph7.4 kmh 30.00 in1015.9 mb - 0.00 in0.0 mm 0.00 in0.0 mm
05:40 AM 58.2°F14.6°C 50.7°F10.4°C 76% 2.3 mph SSW3.7 kmh SSW 3.5 mph5.6 kmh 30.00 in1015.9 mb - 0.00 in0.0 mm 0.00 in0.0 mm
05:35 AM 58.3°F14.6°C 50.8°F10.4°C 76% 2.3 mph SSW3.7 kmh SSW 3.5 mph5.6 kmh 29.99 in1015.6 mb - 0.00 in0.0 mm 0.00 in0.0 mm
05:30 AM 58.4°F14.7°C 50.9°F10.5°C 76% 2.3 mph SW3.7 kmh SW 3.5 mph5.6 kmh 29.99 in1015.6 mb - 0.00 in0.0 mm 0.00 in0.0 mm
05:25 AM 58.4°F14.7°C 50.5°F10.3°C 75% 2.3 mph SW3.7 kmh SW 3.5 mph5.6 kmh 29.98 in1015.2 mb - 0.00 in0.0 mm 0.00 in0.0 mm
05:20 AM 58.3°F14.6°C 50.4°F10.2°C 75% 1.2 mph SSE1.9 kmh SSE 1.2 mph1.9 kmh 29.98 in1015.2 mb - 0.00 in0.0 mm 0.00 in0.0 mm
05:15 AM 58.4°F14.7°C 50.1°F10.1°C 74% Calm Calm -- 29.98 in1015.2 mb - 0.00 in0.0 mm 0.00 in0.0 mm
05:10 AM 58.4°F14.7°C 50.2°F10.1°C 74% Calm Calm -- 29.98 in1015.2 mb - 0.00 in0.0 mm 0.00 in0.0 mm
05:00 AM 58.6°F14.8°C 50.0°F10.0°C 73% Calm Calm -- 29.98 in1015.2 mb - 0.00 in0.0 mm 0.00 in0.0 mm
04:55 AM 58.5°F14.7°C 49.9°F9.9°C 73% Calm Calm 1.2 mph1.9 kmh 29.99 in1015.6 mb - 0.00 in0.0 mm 0.00 in0.0 mm
04:50 AM 58.2°F14.6°C 49.2°F9.6°C 72% Calm Calm 3.5 mph5.6 kmh 29.98 in1015.2 mb - 0.00 in0.0 mm 0.00 in0.0 mm
04:45 AM 58.3°F14.6°C 48.2°F9.0°C 69% Calm Calm -- 29.99 in1015.6 mb - 0.00 in0.0 mm 0.00 in0.0 mm
04:40 AM 58.5°F14.7°C 48.4°F9.1°C 69% Calm Calm -- 29.99 in1015.6 mb - 0.00 in0.0 mm 0.00 in0.0 mm
04:35 AM 58.6°F14.8°C 48.5°F9.2°C 69% Calm Calm -- 29.99 in1015.6 mb - 0.00 in0.0 mm 0.00 in0.0 mm
04:30 AM 58.7°F14.8°C 49.0°F9.4°C 70% Calm Calm -- 29.99 in1015.6 mb - 0.00 in0.0 mm 0.00 in0.0 mm
04:25 AM 58.8°F14.9°C 48.3°F9.1°C 68% Calm Calm -- 29.98 in1015.2 mb - 0.00 in0.0 mm 0.00 in0.0 mm
04:20 AM 58.9°F14.9°C 48.4°F9.1°C 68% Calm Calm -- 29.99 in1015.6 mb - 0.00 in0.0 mm 0.00 in0.0 mm
04:15 AM 58.9°F14.9°C 48.4°F9.1°C 68% Calm Calm -- 29.99 in1015.6 mb - 0.00 in0.0 mm 0.00 in0.0 mm
04:10 AM 59.0°F15.0°C 48.4°F9.1°C 68% Calm Calm -- 29.98 in1015.2 mb - 0.00 in0.0 mm 0.00 in0.0 mm
04:00 AM 59.2°F15.1°C 48.6°F9.2°C 68% Calm Calm -- 29.98 in1015.2 mb - 0.00 in0.0 mm 0.00 in0.0 mm
03:55 AM 59.3°F15.2°C 48.8°F9.3°C 68% Calm Calm -- 29.99 in1015.6 mb - 0.00 in0.0 mm 0.00 in0.0 mm
03:50 AM 59.5°F15.3°C 48.9°F9.4°C 68% Calm Calm -- 29.99 in1015.6 mb - 0.00 in0.0 mm 0.00 in0.0 mm
03:45 AM 59.6°F15.3°C 49.0°F9.4°C 68% Calm Calm -- 29.98 in1015.2 mb - 0.00 in0.0 mm 0.00 in0.0 mm
03:40 AM 59.7°F15.4°C 48.7°F9.3°C 67% Calm Calm -- 29.98 in1015.2 mb - 0.00 in0.0 mm 0.00 in0.0 mm
03:35 AM 59.7°F15.4°C 48.7°F9.3°C 67% Calm Calm -- 29.98 in1015.2 mb - 0.00 in0.0 mm 0.00 in0.0 mm
03:30 AM 59.8°F15.4°C 48.8°F9.3°C 67% Calm Calm -- 29.98 in1015.2 mb - 0.00 in0.0 mm 0.00 in0.0 mm
03:25 AM 59.9°F15.5°C 48.5°F9.2°C 66% Calm Calm -- 29.98 in1015.2 mb - 0.00 in0.0 mm 0.00 in0.0 mm
03:20 AM 60.0°F15.6°C 48.6°F9.2°C 66% Calm Calm -- 29.98 in1015.2 mb - 0.00 in0.0 mm 0.00 in0.0 mm
03:15 AM 60.0°F15.6°C 48.6°F9.2°C 66% Calm Calm -- 29.99 in1015.6 mb - 0.00 in0.0 mm 0.00 in0.0 mm
03:10 AM 60.1°F15.6°C 48.3°F9.1°C 65% Calm Calm -- 29.98 in1015.2 mb - 0.00 in0.0 mm 0.00 in0.0 mm
03:00 AM 60.3°F15.7°C 48.1°F8.9°C 64% Calm Calm -- 29.98 in1015.2 mb - 0.00 in0.0 mm 0.00 in0.0 mm
02:55 AM 60.5°F15.8°C 48.3°F9.1°C 64% Calm Calm -- 29.98 in1015.2 mb - 0.00 in0.0 mm 0.00 in0.0 mm
02:50 AM 60.7°F15.9°C 48.4°F9.1°C 64% Calm Calm -- 29.98 in1015.2 mb - 0.00 in0.0 mm 0.00 in0.0 mm
02:45 AM 60.8°F16.0°C 48.1°F8.9°C 63% Calm Calm -- 29.98 in1015.2 mb - 0.00 in0.0 mm 0.00 in0.0 mm
02:40 AM 60.9°F16.1°C 48.2°F9.0°C 63% Calm Calm -- 29.98 in1015.2 mb - 0.00 in0.0 mm 0.00 in0.0 mm
02:35 AM 61.1°F16.2°C 48.4°F9.1°C 63% Calm Calm -- 29.98 in1015.2 mb - 0.00 in0.0 mm 0.00 in0.0 mm
02:30 AM 61.3°F16.3°C 48.2°F9.0°C 62% Calm Calm -- 29.98 in1015.2 mb - 0.00 in0.0 mm 0.00 in0.0 mm
02:25 AM 61.6°F16.4°C 48.4°F9.1°C 62% Calm Calm -- 29.98 in1015.2 mb - 0.00 in0.0 mm 0.00 in0.0 mm
02:20 AM 61.8°F16.6°C 48.2°F9.0°C 61% Calm Calm -- 29.98 in1015.2 mb - 0.00 in0.0 mm 0.00 in0.0 mm
02:15 AM 62.0°F16.7°C 48.4°F9.1°C 61% Calm Calm -- 29.98 in1015.2 mb - 0.00 in0.0 mm 0.00 in0.0 mm
02:10 AM 62.2°F16.8°C 48.1°F8.9°C 60% Calm Calm -- 29.98 in1015.2 mb - 0.00 in0.0 mm 0.00 in0.0 mm
02:00 AM 62.6°F17.0°C 47.6°F8.7°C 58% Calm Calm -- 29.98 in1015.2 mb - 0.00 in0.0 mm 0.00 in0.0 mm
01:55 AM 62.8°F17.1°C 47.8°F8.8°C 58% Calm Calm -- 29.98 in1015.2 mb - 0.00 in0.0 mm 0.00 in0.0 mm
01:50 AM 63.0°F17.2°C 47.5°F8.6°C 57% Calm Calm -- 29.98 in1015.2 mb - 0.00 in0.0 mm 0.00 in0.0 mm
01:45 AM 63.1°F17.3°C 47.2°F8.4°C 56% Calm Calm -- 29.98 in1015.2 mb - 0.00 in0.0 mm 0.00 in0.0 mm
01:40 AM 63.2°F17.3°C 47.2°F8.4°C 56% Calm Calm -- 29.98 in1015.2 mb - 0.00 in0.0 mm 0.00 in0.0 mm
01:35 AM 63.4°F17.4°C 47.4°F8.6°C 56% Calm Calm -- 29.98 in1015.2 mb - 0.00 in0.0 mm 0.00 in0.0 mm
01:30 AM 63.4°F17.4°C 47.4°F8.6°C 56% 1.2 mph NE1.9 kmh NE 2.3 mph3.7 kmh 29.98 in1015.2 mb - 0.00 in0.0 mm 0.00 in0.0 mm
01:25 AM 63.3°F17.4°C 47.3°F8.5°C 56% 1.2 mph NE1.9 kmh NE 2.3 mph3.7 kmh 29.98 in1015.2 mb - 0.00 in0.0 mm 0.00 in0.0 mm
01:20 AM 63.1°F17.3°C 47.2°F8.4°C 56% 2.3 mph ENE3.7 kmh ENE 3.5 mph5.6 kmh 29.98 in1015.2 mb - 0.00 in0.0 mm 0.00 in0.0 mm
01:15 AM 62.8°F17.1°C 47.3°F8.5°C 57% 3.5 mph E5.6 kmh E 3.5 mph5.6 kmh 29.98 in1015.2 mb - 0.00 in0.0 mm 0.00 in0.0 mm
01:10 AM 62.8°F17.1°C 47.3°F8.5°C 57% 1.2 mph E1.9 kmh E 1.2 mph1.9 kmh 29.98 in1015.2 mb - 0.00 in0.0 mm 0.00 in0.0 mm
01:00 AM 63.1°F17.3°C 47.6°F8.7°C 57% Calm Calm -- 29.97 in1014.9 mb - 0.00 in0.0 mm 0.00 in0.0 mm
12:55 AM 63.2°F17.3°C 47.7°F8.7°C 57% Calm Calm -- 29.97 in1014.9 mb - 0.00 in0.0 mm 0.00 in0.0 mm
12:50 AM 63.3°F17.4°C 47.8°F8.8°C 57% Calm Calm -- 29.97 in1014.9 mb - 0.00 in0.0 mm 0.00 in0.0 mm
12:45 AM 63.4°F17.4°C 47.4°F8.6°C 56% Calm Calm -- 29.97 in1014.9 mb - 0.00 in0.0 mm 0.00 in0.0 mm
12:40 AM 63.7°F17.6°C 47.7°F8.7°C 56% Calm Calm -- 29.97 in1014.9 mb - 0.00 in0.0 mm 0.00 in0.0 mm
12:35 AM 63.8°F17.7°C 47.8°F8.8°C 56% Calm Calm -- 29.96 in1014.6 mb - 0.00 in0.0 mm 0.00 in0.0 mm
12:30 AM 63.9°F17.7°C 47.9°F8.8°C 56% Calm Calm 1.2 mph1.9 kmh 29.96 in1014.6 mb - 0.00 in0.0 mm 0.00 in0.0 mm
12:25 AM 64.1°F17.8°C 48.1°F8.9°C 56% 1.2 mph E1.9 kmh E 3.5 mph5.6 kmh 29.97 in1014.9 mb - 0.00 in0.0 mm 0.00 in0.0 mm
12:20 AM 64.4°F18.0°C 48.4°F9.1°C 56% 1.2 mph E1.9 kmh E 3.5 mph5.6 kmh 29.96 in1014.6 mb - 0.00 in0.0 mm 0.00 in0.0 mm
12:15 AM 64.6°F18.1°C 49.0°F9.4°C 57% 1.2 mph E1.9 kmh E 3.5 mph5.6 kmh 29.96 in1014.6 mb - 0.00 in0.0 mm 0.00 in0.0 mm
12:10 AM 64.8°F18.2°C 48.7°F9.3°C 56% 2.3 mph ENE3.7 kmh ENE 4.6 mph7.4 kmh 29.96 in1014.6 mb - 0.00 in0.0 mm 0.00 in0.0 mm
12:00 AM 65.2°F18.4°C 49.6°F9.8°C 57% 2.3 mph E3.7 kmh E 2.3 mph3.7 kmh 29.96 in1014.6 mb - 0.00 in0.0 mm 0.00 in0.0 mm